sensor_id;sensor_type;location;lat;lon;timestamp;pressure;altitude;pressure_sealevel;temperature;humidity
83308;BME280;73223;48.584;13.460;2024-02-04T00:01:24;97654.94;;;5.82;100.00
83308;BME280;73223;48.584;13.460;2024-02-04T00:03:49;97648.91;;;5.60;100.00
83308;BME280;73223;48.584;13.460;2024-02-04T00:06:14;97640.34;;;5.46;100.00
83308;BME280;73223;48.584;13.460;2024-02-04T00:08:40;97646.38;;;5.68;100.00
83308;BME280;73223;48.584;13.460;2024-02-04T00:11:05;97631.78;;;5.48;100.00
83308;BME280;73223;48.584;13.460;2024-02-04T00:13:32;97648.94;;;5.52;100.00
83308;BME280;73223;48.584;13.460;2024-02-04T00:15:58;97646.28;;;5.27;100.00
83308;BME280;73223;48.584;13.460;2024-02-04T00:18:24;97647.22;;;5.76;100.00
83308;BME280;73223;48.584;13.460;2024-02-04T00:20:49;97649.81;;;5.68;100.00
83308;BME280;73223;48.584;13.460;2024-02-04T00:23:14;97640.38;;;5.64;100.00
83308;BME280;73223;48.584;13.460;2024-02-04T00:25:40;97642.94;;;5.79;100.00
83308;BME280;73223;48.584;13.460;2024-02-04T00:28:06;97653.22;;;5.81;100.00
83308;BME280;73223;48.584;13.460;2024-02-04T00:30:32;97645.50;;;5.63;100.00
83308;BME280;73223;48.584;13.460;2024-02-04T00:32:57;97653.25;;;5.87;100.00
83308;BME280;73223;48.584;13.460;2024-02-04T00:35:28;97654.94;;;5.67;100.00
83308;BME280;73223;48.584;13.460;2024-02-04T00:37:53;97661.78;;;5.57;100.00
83308;BME280;73223;48.584;13.460;2024-02-04T00:40:18;97657.47;;;5.56;100.00
83308;BME280;73223;48.584;13.460;2024-02-04T00:42:44;97650.63;;;5.56;100.00
83308;BME280;73223;48.584;13.460;2024-02-04T00:45:09;97653.25;;;5.93;100.00
83308;BME280;73223;48.584;13.460;2024-02-04T00:47:34;97645.56;;;6.04;100.00
83308;BME280;73223;48.584;13.460;2024-02-04T00:50:00;97638.69;;;6.09;100.00
83308;BME280;73223;48.584;13.460;2024-02-04T00:52:25;97635.25;;;5.95;100.00
83308;BME280;73223;48.584;13.460;2024-02-04T00:54:50;97630.94;;;5.81;100.00
83308;BME280;73223;48.584;13.460;2024-02-04T00:57:15;97624.13;;;5.89;100.00
83308;BME280;73223;48.584;13.460;2024-02-04T00:59:41;97622.34;;;5.75;100.00
83308;BME280;73223;48.584;13.460;2024-02-04T01:02:06;97624.97;;;6.07;100.00
83308;BME280;73223;48.584;13.460;2024-02-04T01:04:31;97630.97;;;6.04;100.00
83308;BME280;73223;48.584;13.460;2024-02-04T01:06:57;97636.06;;;5.62;100.00
83308;BME280;73223;48.584;13.460;2024-02-04T01:09:22;97642.97;;;5.93;100.00
83308;BME280;73223;48.584;13.460;2024-02-04T01:11:47;97636.97;;;6.02;100.00
83308;BME280;73223;48.584;13.460;2024-02-04T01:14:12;97636.13;;;5.89;100.00
83308;BME280;73223;48.584;13.460;2024-02-04T01:16:38;97636.06;;;5.55;100.00
83308;BME280;73223;48.584;13.460;2024-02-04T01:19:03;97641.19;;;5.42;100.00
83308;BME280;73223;48.584;13.460;2024-02-04T01:21:28;97649.78;;;5.64;100.00
83308;BME280;73223;48.584;13.460;2024-02-04T01:23:54;97643.81;;;5.81;100.00
83308;BME280;73223;48.584;13.460;2024-02-04T01:26:19;97631.84;;;5.89;100.00
83308;BME280;73223;48.584;13.460;2024-02-04T01:28:45;97630.97;;;6.24;100.00
83308;BME280;73223;48.584;13.460;2024-02-04T01:31:10;97630.06;;;5.46;100.00
83308;BME280;73223;48.584;13.460;2024-02-04T01:33:36;97616.38;;;5.82;100.00
83308;BME280;73223;48.584;13.460;2024-02-04T01:36:01;97618.09;;;5.72;100.00
83308;BME280;73223;48.584;13.460;2024-02-04T01:38:26;97616.38;;;5.82;100.00
83308;BME280;73223;48.584;13.460;2024-02-04T01:40:51;97602.63;;;5.55;100.00
83308;BME280;73223;48.584;13.460;2024-02-04T01:43:19;97606.06;;;5.65;100.00
83308;BME280;73223;48.584;13.460;2024-02-04T01:45:47;97615.56;;;5.89;100.00
83308;BME280;73223;48.584;13.460;2024-02-04T01:48:12;97625.78;;;5.62;100.00
83308;BME280;73223;48.584;13.460;2024-02-04T01:50:40;97619.81;;;5.72;100.00
83308;BME280;73223;48.584;13.460;2024-02-04T01:53:06;97627.56;;;5.90;100.00
83308;BME280;73223;48.584;13.460;2024-02-04T01:55:31;97637.84;;;6.08;100.00
83308;BME280;73223;48.584;13.460;2024-02-04T01:57:56;97624.94;;;6.16;100.00
83308;BME280;73223;48.584;13.460;2024-02-04T02:00:22;97618.06;;;5.58;100.00
83308;BME280;73223;48.584;13.460;2024-02-04T02:02:48;97628.38;;;5.78;100.00
83308;BME280;73223;48.584;13.460;2024-02-04T02:05:13;97611.25;;;5.92;100.00
83308;BME280;73223;48.584;13.460;2024-02-04T02:07:40;97616.38;;;5.88;100.00
83308;BME280;73223;48.584;13.460;2024-02-04T02:10:05;97611.22;;;5.80;100.00
83308;BME280;73223;48.584;13.460;2024-02-04T02:12:50;97599.25;;;5.88;100.00
83308;BME280;73223;48.584;13.460;2024-02-04T02:15:23;97603.53;;;6.03;100.00
83308;BME280;73223;48.584;13.460;2024-02-04T02:20:30;97606.94;;;5.96;100.00
83308;BME280;73223;48.584;13.460;2024-02-04T02:23:06;97603.50;;;6.14;100.00
83308;BME280;73223;48.584;13.460;2024-02-04T02:25:33;97601.81;;;5.99;100.00
83308;BME280;73223;48.584;13.460;2024-02-04T02:28:01;97599.25;;;6.04;100.00
83308;BME280;73223;48.584;13.460;2024-02-04T02:30:26;97595.78;;;5.74;100.00
83308;BME280;73223;48.584;13.460;2024-02-04T02:32:51;97600.94;;;5.85;100.00
83308;BME280;73223;48.584;13.460;2024-02-04T02:35:17;97597.53;;;6.03;100.00
83308;BME280;73223;48.584;13.460;2024-02-04T02:38:17;97600.94;;;5.88;100.00
83308;BME280;73223;48.584;13.460;2024-02-04T02:40:47;97612.06;;;5.81;100.00
83308;BME280;73223;48.584;13.460;2024-02-04T02:43:14;97602.63;;;5.60;100.00
83308;BME280;73223;48.584;13.460;2024-02-04T02:45:42;97594.06;;;6.13;100.00
83308;BME280;73223;48.584;13.460;2024-02-04T02:48:08;97605.22;;;5.87;100.00
83308;BME280;73223;48.584;13.460;2024-02-04T02:50:35;97603.50;;;5.92;100.00
83308;BME280;73223;48.584;13.460;2024-02-04T02:53:00;97602.66;;;6.06;100.00
83308;BME280;73223;48.584;13.460;2024-02-04T02:55:25;97609.53;;;6.08;100.00
83308;BME280;73223;48.584;13.460;2024-02-04T02:57:51;97590.66;;;6.06;100.00
83308;BME280;73223;48.584;13.460;2024-02-04T03:00:17;97594.06;;;6.19;100.00
83308;BME280;73223;48.584;13.460;2024-02-04T03:02:42;97588.94;;;6.05;100.00
83308;BME280;73223;48.584;13.460;2024-02-04T03:05:07;97592.34;;;6.13;100.00
83308;BME280;73223;48.584;13.460;2024-02-04T03:07:33;97578.63;;;6.20;100.00
83308;BME280;73223;48.584;13.460;2024-02-04T03:09:58;97580.34;;;5.88;100.00
83308;BME280;73223;48.584;13.460;2024-02-04T03:12:23;97591.50;;;5.98;100.00
83308;BME280;73223;48.584;13.460;2024-02-04T03:14:49;97589.81;;;6.01;100.00
83308;BME280;73223;48.584;13.460;2024-02-04T03:17:14;97573.44;;;6.37;100.00
83308;BME280;73223;48.584;13.460;2024-02-04T03:19:39;97582.94;;;6.05;100.00
83308;BME280;73223;48.584;13.460;2024-02-04T03:22:04;97586.38;;;5.93;100.00
83308;BME280;73223;48.584;13.460;2024-02-04T03:24:30;97589.78;;;6.21;100.00
83308;BME280;73223;48.584;13.460;2024-02-04T03:26:55;97592.31;;;6.27;100.00
83308;BME280;73223;48.584;13.460;2024-02-04T03:29:20;97583.78;;;6.19;100.00
83308;BME280;73223;48.584;13.460;2024-02-04T03:31:45;97580.38;;;5.96;100.00
83308;BME280;73223;48.584;13.460;2024-02-04T03:34:11;97582.06;;;5.51;100.00
83308;BME280;73223;48.584;13.460;2024-02-04T03:36:37;97586.34;;;5.87;100.00
83308;BME280;73223;48.584;13.460;2024-02-04T03:39:02;97594.91;;;5.60;100.00
83308;BME280;73223;48.584;13.460;2024-02-04T03:41:28;97598.38;;;5.92;100.00
83308;BME280;73223;48.584;13.460;2024-02-04T03:43:53;97595.78;;;5.83;100.00
83308;BME280;73223;48.584;13.460;2024-02-04T03:46:20;97592.38;;;6.00;100.00
83308;BME280;73223;48.584;13.460;2024-02-04T03:48:45;97595.78;;;5.79;100.00
83308;BME280;73223;48.584;13.460;2024-02-04T03:51:18;97606.06;;;5.83;100.00
83308;BME280;73223;48.584;13.460;2024-02-04T03:53:44;97609.50;;;6.11;100.00
83308;BME280;73223;48.584;13.460;2024-02-04T03:56:09;97600.97;;;5.89;100.00
83308;BME280;73223;48.584;13.460;2024-02-04T03:58:35;97607.81;;;5.93;100.00
83308;BME280;73223;48.584;13.460;2024-02-04T04:01:00;97612.06;;;6.10;100.00
83308;BME280;73223;48.584;13.460;2024-02-04T04:03:26;97613.81;;;5.99;100.00
83308;BME280;73223;48.584;13.460;2024-02-04T04:05:53;97621.50;;;6.31;100.00
83308;BME280;73223;48.584;13.460;2024-02-04T04:08:18;97626.66;;;6.12;100.00
83308;BME280;73223;48.584;13.460;2024-02-04T04:10:43;97635.25;;;6.22;100.00
83308;BME280;73223;48.584;13.460;2024-02-04T04:13:09;97617.22;;;6.16;100.00
83308;BME280;73223;48.584;13.460;2024-02-04T04:15:34;97630.13;;;6.08;100.00
83308;BME280;73223;48.584;13.460;2024-02-04T04:17:59;97624.09;;;6.20;100.00
83308;BME280;73223;48.584;13.460;2024-02-04T04:20:24;97632.69;;;6.07;100.00
83308;BME280;73223;48.584;13.460;2024-02-04T04:22:50;97627.50;;;5.64;100.00
83308;BME280;73223;48.584;13.460;2024-02-04T04:25:15;97629.25;;;5.94;100.00
83308;BME280;73223;48.584;13.460;2024-02-04T04:27:42;97629.25;;;5.99;100.00
83308;BME280;73223;48.584;13.460;2024-02-04T04:30:07;97630.97;;;5.97;100.00
83308;BME280;73223;48.584;13.460;2024-02-04T04:32:33;97633.50;;;6.27;100.00
83308;BME280;73223;48.584;13.460;2024-02-04T04:34:59;97629.28;;;5.91;100.00
83308;BME280;73223;48.584;13.460;2024-02-04T04:37:24;97626.66;;;5.80;100.00
83308;BME280;73223;48.584;13.460;2024-02-04T04:39:49;97619.78;;;5.76;100.00
83308;BME280;73223;48.584;13.460;2024-02-04T04:42:15;97630.09;;;5.93;100.00
83308;BME280;73223;48.584;13.460;2024-02-04T04:44:40;97625.81;;;5.87;100.00
83308;BME280;73223;48.584;13.460;2024-02-04T04:47:05;97615.53;;;5.93;100.00
83308;BME280;73223;48.584;13.460;2024-02-04T04:49:30;97624.13;;;6.06;100.00
83308;BME280;73223;48.584;13.460;2024-02-04T04:51:56;97624.13;;;5.91;100.00
83308;BME280;73223;48.584;13.460;2024-02-04T04:54:21;97627.56;;;5.90;100.00
83308;BME280;73223;48.584;13.460;2024-02-04T04:56:47;97632.66;;;5.69;100.00
83308;BME280;73223;48.584;13.460;2024-02-04T04:59:12;97639.50;;;5.76;100.00
83308;BME280;73223;48.584;13.460;2024-02-04T05:01:37;97638.69;;;5.93;100.00
83308;BME280;73223;48.584;13.460;2024-02-04T05:04:03;97633.50;;;5.54;100.00
83308;BME280;73223;48.584;13.460;2024-02-04T05:06:28;97643.78;;;5.60;100.00
83308;BME280;73223;48.584;13.460;2024-02-04T05:08:53;97643.00;;;6.08;100.00
83308;BME280;73223;48.584;13.460;2024-02-04T05:11:18;97631.84;;;6.05;100.00
83308;BME280;73223;48.584;13.460;2024-02-04T05:13:44;97633.50;;;5.80;100.00
83308;BME280;73223;48.584;13.460;2024-02-04T05:16:09;97633.53;;;5.93;100.00
83308;BME280;73223;48.584;13.460;2024-02-04T05:18:34;97626.69;;;6.08;100.00
83308;BME280;73223;48.584;13.460;2024-02-04T05:21:01;97620.69;;;5.95;100.00
83308;BME280;73223;48.584;13.460;2024-02-04T05:23:27;97615.47;;;5.55;100.00
83308;BME280;73223;48.584;13.460;2024-02-04T05:25:53;97630.06;;;5.59;100.00
83308;BME280;73223;48.584;13.460;2024-02-04T05:28:18;97640.38;;;5.64;100.00
83308;BME280;73223;48.584;13.460;2024-02-04T05:30:43;97625.78;;;5.78;100.00
83308;BME280;73223;48.584;13.460;2024-02-04T05:33:09;97607.75;;;5.55;100.00
83308;BME280;73223;48.584;13.460;2024-02-04T05:35:34;97622.41;;;5.90;100.00
83308;BME280;73223;48.584;13.460;2024-02-04T05:38:02;97618.97;;;5.89;100.00
83308;BME280;73223;48.584;13.460;2024-02-04T05:40:27;97614.66;;;5.66;100.00
83308;BME280;73223;48.584;13.460;2024-02-04T05:42:52;97608.63;;;5.76;100.00
83308;BME280;73223;48.584;13.460;2024-02-04T05:45:18;97619.78;;;5.75;100.00
83308;BME280;73223;48.584;13.460;2024-02-04T05:47:43;97620.66;;;5.54;100.00
83308;BME280;73223;48.584;13.460;2024-02-04T05:50:08;97607.81;;;5.72;100.00
83308;BME280;73223;48.584;13.460;2024-02-04T05:52:34;97620.63;;;5.55;100.00
83308;BME280;73223;48.584;13.460;2024-02-04T05:54:59;97611.22;;;5.82;100.00
83308;BME280;73223;48.584;13.460;2024-02-04T05:57:24;97617.22;;;5.53;100.00
83308;BME280;73223;48.584;13.460;2024-02-04T05:59:50;97620.63;;;5.62;100.00
83308;BME280;73223;48.584;13.460;2024-02-04T06:02:17;97626.66;;;5.83;100.00
83308;BME280;73223;48.584;13.460;2024-02-04T06:04:43;97620.63;;;5.37;100.00
83308;BME280;73223;48.584;13.460;2024-02-04T06:07:08;97620.66;;;5.69;100.00
83308;BME280;73223;48.584;13.460;2024-02-04T06:09:33;97618.06;;;5.74;100.00
83308;BME280;73223;48.584;13.460;2024-02-04T06:11:59;97623.22;;;5.63;100.00
83308;BME280;73223;48.584;13.460;2024-02-04T06:14:24;97615.50;;;5.68;100.00
83308;BME280;73223;48.584;13.460;2024-02-04T06:16:49;97612.91;;;5.46;100.00
83308;BME280;73223;48.584;13.460;2024-02-04T06:19:14;97622.34;;;5.75;100.00
83308;BME280;73223;48.584;13.460;2024-02-04T06:21:40;97628.34;;;5.75;100.00
83308;BME280;73223;48.584;13.460;2024-02-04T06:24:05;97626.66;;;5.67;100.00
83308;BME280;73223;48.584;13.460;2024-02-04T06:26:31;97616.34;;;5.74;100.00
83308;BME280;73223;48.584;13.460;2024-02-04T06:28:56;97631.75;;;5.32;100.00
83308;BME280;73223;48.584;13.460;2024-02-04T06:31:21;97638.66;;;5.63;100.00
83308;BME280;73223;48.584;13.460;2024-02-04T06:33:47;97624.91;;;5.58;100.00
83308;BME280;73223;48.584;13.460;2024-02-04T06:36:12;97628.34;;;5.45;100.00
83308;BME280;73223;48.584;13.460;2024-02-04T06:38:37;97619.75;;;5.38;100.00
83308;BME280;73223;48.584;13.460;2024-02-04T06:41:03;97630.06;;;5.59;100.00
83308;BME280;73223;48.584;13.460;2024-02-04T06:43:28;97636.91;;;5.44;100.00
83308;BME280;73223;48.584;13.460;2024-02-04T06:45:53;97618.06;;;5.66;100.00
83308;BME280;73223;48.584;13.460;2024-02-04T06:48:19;97629.22;;;5.53;100.00
83308;BME280;73223;48.584;13.460;2024-02-04T06:50:45;97645.41;;;5.21;100.00
83308;BME280;73223;48.584;13.460;2024-02-04T06:53:10;97637.78;;;5.64;100.00
83308;BME280;73223;48.584;13.460;2024-02-04T06:55:36;97636.06;;;5.54;100.00
83308;BME280;73223;48.584;13.460;2024-02-04T06:58:01;97631.75;;;5.39;100.00
83308;BME280;73223;48.584;13.460;2024-02-04T07:00:26;97636.00;;;5.28;100.00
83308;BME280;73223;48.584;13.460;2024-02-04T07:02:52;97640.38;;;5.70;100.00
83308;BME280;73223;48.584;13.460;2024-02-04T07:05:17;97632.63;;;5.56;100.00
83308;BME280;73223;48.584;13.460;2024-02-04T07:07:43;97639.47;;;5.57;100.00
83308;BME280;73223;48.584;13.460;2024-02-04T07:10:09;97630.94;;;5.62;100.00
83308;BME280;73223;48.584;13.460;2024-02-04T07:12:34;97630.06;;;5.58;100.00
83308;BME280;73223;48.584;13.460;2024-02-04T07:15:00;97618.91;;;5.36;100.00
83308;BME280;73223;48.584;13.460;2024-02-04T07:17:26;97606.06;;;5.74;100.00
83308;BME280;73223;48.584;13.460;2024-02-04T07:19:52;97611.19;;;5.56;100.00
83308;BME280;73223;48.584;13.460;2024-02-04T07:22:17;97607.78;;;5.63;100.00
83308;BME280;73223;48.584;13.460;2024-02-04T07:24:42;97604.34;;;5.59;100.00
83308;BME280;73223;48.584;13.460;2024-02-04T07:27:07;97606.06;;;5.48;100.00
83308;BME280;73223;48.584;13.460;2024-02-04T07:29:33;97618.06;;;5.45;100.00
83308;BME280;73223;48.584;13.460;2024-02-04T07:31:58;97618.09;;;5.72;100.00
83308;BME280;73223;48.584;13.460;2024-02-04T07:34:23;97601.75;;;5.43;100.00
83308;BME280;73223;48.584;13.460;2024-02-04T07:36:49;97614.66;;;5.67;100.00
83308;BME280;73223;48.584;13.460;2024-02-04T07:39:14;97606.94;;;5.91;100.00
83308;BME280;73223;48.584;13.460;2024-02-04T07:41:39;97601.78;;;5.67;100.00
83308;BME280;73223;48.584;13.460;2024-02-04T07:44:04;97610.34;;;5.74;100.00
83308;BME280;73223;48.584;13.460;2024-02-04T07:46:30;97601.78;;;5.78;100.00
83308;BME280;73223;48.584;13.460;2024-02-04T07:48:55;97605.22;;;5.54;100.00
83308;BME280;73223;48.584;13.460;2024-02-04T07:51:20;97602.66;;;5.97;100.00
83308;BME280;73223;48.584;13.460;2024-02-04T07:53:46;97604.41;;;5.88;100.00
83308;BME280;73223;48.584;13.460;2024-02-04T07:56:11;97612.06;;;5.79;100.00
83308;BME280;73223;48.584;13.460;2024-02-04T07:58:37;97610.38;;;5.71;100.00
83308;BME280;73223;48.584;13.460;2024-02-04T08:01:02;97623.22;;;5.84;100.00
83308;BME280;73223;48.584;13.460;2024-02-04T08:03:28;97624.94;;;5.78;100.00
83308;BME280;73223;48.584;13.460;2024-02-04T08:05:54;97611.22;;;5.70;100.00
83308;BME280;73223;48.584;13.460;2024-02-04T08:08:19;97615.50;;;5.87;100.00
83308;BME280;73223;48.584;13.460;2024-02-04T08:10:44;97619.75;;;5.38;100.00
83308;BME280;73223;48.584;13.460;2024-02-04T08:13:10;97622.34;;;5.47;100.00
83308;BME280;73223;48.584;13.460;2024-02-04T08:15:35;97610.34;;;5.43;100.00
83308;BME280;73223;48.584;13.460;2024-02-04T08:18:00;97613.78;;;5.57;100.00
83308;BME280;73223;48.584;13.460;2024-02-04T08:20:26;97611.22;;;5.61;100.00
83308;BME280;73223;48.584;13.460;2024-02-04T08:22:51;97608.63;;;5.61;100.00
83308;BME280;73223;48.584;13.460;2024-02-04T08:25:17;97612.09;;;5.95;100.00
83308;BME280;73223;48.584;13.460;2024-02-04T08:27:42;97618.97;;;6.03;100.00
83308;BME280;73223;48.584;13.460;2024-02-04T08:30:08;97600.97;;;6.05;100.00
83308;BME280;73223;48.584;13.460;2024-02-04T08:32:35;97605.22;;;5.92;100.00
83308;BME280;73223;48.584;13.460;2024-02-04T08:35:00;97607.78;;;5.80;100.00
83308;BME280;73223;48.584;13.460;2024-02-04T08:37:25;97603.53;;;5.97;100.00
83308;BME280;73223;48.584;13.460;2024-02-04T08:39:50;97612.94;;;5.95;100.00
83308;BME280;73223;48.584;13.460;2024-02-04T08:42:16;97612.94;;;5.92;100.00
83308;BME280;73223;48.584;13.460;2024-02-04T08:44:41;97609.47;;;6.31;100.00
83308;BME280;73223;48.584;13.460;2024-02-04T08:47:07;97615.50;;;6.13;100.00
83308;BME280;73223;48.584;13.460;2024-02-04T08:49:35;97620.69;;;5.95;100.00
83308;BME280;73223;48.584;13.460;2024-02-04T08:52:01;97615.47;;;6.27;100.00
83308;BME280;73223;48.584;13.460;2024-02-04T08:54:26;97610.34;;;6.33;100.00
83308;BME280;73223;48.584;13.460;2024-02-04T08:56:51;97618.94;;;6.09;100.00
83308;BME280;73223;48.584;13.460;2024-02-04T08:59:17;97604.25;;;6.61;100.00
83308;BME280;73223;48.584;13.460;2024-02-04T09:01:42;97613.75;;;6.41;100.00
83308;BME280;73223;48.584;13.460;2024-02-04T09:04:07;97620.63;;;6.35;100.00
83308;BME280;73223;48.584;13.460;2024-02-04T09:06:33;97621.44;;;6.52;100.00
83308;BME280;73223;48.584;13.460;2024-02-04T09:08:58;97611.16;;;6.47;100.00
83308;BME280;73223;48.584;13.460;2024-02-04T09:11:23;97619.72;;;6.55;100.00
83308;BME280;73223;48.584;13.460;2024-02-04T09:13:49;97619.72;;;6.60;100.00
83308;BME280;73223;48.584;13.460;2024-02-04T09:16:15;97613.75;;;6.35;100.00
83308;BME280;73223;48.584;13.460;2024-02-04T09:21:16;97598.25;;;6.56;100.00
83308;BME280;73223;48.584;13.460;2024-02-04T09:23:41;97607.66;;;6.76;100.00
83308;BME280;73223;48.584;13.460;2024-02-04T09:26:06;97591.31;;;6.77;100.00
83308;BME280;73223;48.584;13.460;2024-02-04T09:28:31;97601.59;;;6.81;100.00
83308;BME280;73223;48.584;13.460;2024-02-04T09:30:57;97604.28;;;6.51;100.00
83308;BME280;73223;48.584;13.460;2024-02-04T09:33:22;97609.28;;;6.90;100.00
83308;BME280;73223;48.584;13.460;2024-02-04T09:35:47;97610.28;;;6.59;100.00
83308;BME280;73223;48.584;13.460;2024-02-04T09:38:14;97611.94;;;6.72;100.00
83308;BME280;73223;48.584;13.460;2024-02-04T09:40:39;97611.84;;;6.98;100.00
83308;BME280;73223;48.584;13.460;2024-02-04T09:43:05;97613.66;;;6.75;100.00
83308;BME280;73223;48.584;13.460;2024-02-04T09:45:30;97617.09;;;6.74;100.00
83308;BME280;73223;48.584;13.460;2024-02-04T09:47:56;97613.59;;;6.84;100.00
83308;BME280;73223;48.584;13.460;2024-02-04T09:50:21;97618.81;;;6.76;100.00
83308;BME280;73223;48.584;13.460;2024-02-04T09:52:49;97613.44;;;7.17;100.00
83308;BME280;73223;48.584;13.460;2024-02-04T09:55:16;97604.09;;;7.00;100.00
83308;BME280;73223;48.584;13.460;2024-02-04T09:57:42;97600.53;;;7.23;100.00
83308;BME280;73223;48.584;13.460;2024-02-04T10:00:09;97602.16;;;7.40;100.00
83308;BME280;73223;48.584;13.460;2024-02-04T10:02:35;97597.84;;;7.37;100.00
83308;BME280;73223;48.584;13.460;2024-02-04T10:05:01;97602.22;;;7.30;100.00
83308;BME280;73223;48.584;13.460;2024-02-04T10:07:27;97612.56;;;7.24;100.00
83308;BME280;73223;48.584;13.460;2024-02-04T10:09:53;97597.19;;;7.02;100.00
83308;BME280;73223;48.584;13.460;2024-02-04T10:12:18;97599.03;;;6.80;100.00
83308;BME280;73223;48.584;13.460;2024-02-04T10:14:43;97605.88;;;6.82;100.00
83308;BME280;73223;48.584;13.460;2024-02-04T10:17:09;97609.13;;;7.22;100.00
83308;BME280;73223;48.584;13.460;2024-02-04T10:19:34;97609.22;;;7.06;100.00
83308;BME280;73223;48.584;13.460;2024-02-04T10:22:00;97607.59;;;6.89;100.00
83308;BME280;73223;48.584;13.460;2024-02-04T10:24:27;97600.66;;;6.99;100.00
83308;BME280;73223;48.584;13.460;2024-02-04T10:26:54;97581.50;;;7.40;100.00
83308;BME280;73223;48.584;13.460;2024-02-04T10:29:19;97581.84;;;6.82;100.00
83308;BME280;73223;48.584;13.460;2024-02-04T10:31:44;97574.13;;;6.80;100.00
83308;BME280;73223;48.584;13.460;2024-02-04T10:34:10;97573.00;;;7.30;100.00
83308;BME280;73223;48.584;13.460;2024-02-04T10:36:35;97564.41;;;7.31;100.00
83308;BME280;73223;48.584;13.460;2024-02-04T10:39:00;97556.72;;;7.19;100.00
83308;BME280;73223;48.584;13.460;2024-02-04T10:41:26;97560.09;;;7.30;100.00
83308;BME280;73223;48.584;13.460;2024-02-04T10:43:53;97551.50;;;7.31;100.00
83308;BME280;73223;48.584;13.460;2024-02-04T10:46:20;97552.38;;;7.27;100.00
83308;BME280;73223;48.584;13.460;2024-02-04T10:48:55;97561.88;;;7.22;100.00
83308;BME280;73223;48.584;13.460;2024-02-04T10:51:24;97558.28;;;7.43;100.00
83308;BME280;73223;48.584;13.460;2024-02-04T10:53:51;97556.66;;;7.31;100.00
83308;BME280;73223;48.584;13.460;2024-02-04T10:56:30;97559.28;;;7.23;100.00
83308;BME280;73223;48.584;13.460;2024-02-04T10:58:58;97541.19;;;7.31;100.00
83308;BME280;73223;48.584;13.460;2024-02-04T11:01:25;97535.31;;;7.09;100.00
83308;BME280;73223;48.584;13.460;2024-02-04T11:03:52;97531.78;;;7.21;100.00
83308;BME280;73223;48.584;13.460;2024-02-04T11:06:20;97514.38;;;7.52;100.00
83308;BME280;73223;48.584;13.460;2024-02-04T11:08:46;97506.59;;;7.55;100.00
83308;BME280;73223;48.584;13.460;2024-02-04T11:11:12;97504.28;;;7.23;100.00
83308;BME280;73223;48.584;13.460;2024-02-04T11:13:38;97491.34;;;7.30;100.00
83308;BME280;73223;48.584;13.460;2024-02-04T11:16:09;97493.75;;;7.52;100.00
83308;BME280;73223;48.584;13.460;2024-02-04T11:19:18;97501.78;;;7.12;100.00
83308;BME280;73223;48.584;13.460;2024-02-04T11:25:20;97495.69;;;7.22;100.00
83308;BME280;73223;48.584;13.460;2024-02-04T11:27:51;97496.34;;;7.47;100.00
83308;BME280;73223;48.584;13.460;2024-02-04T11:30:17;97498.13;;;7.41;100.00
83308;BME280;73223;48.584;13.460;2024-02-04T11:32:42;97495.69;;;7.19;100.00
83308;BME280;73223;48.584;13.460;2024-02-04T11:35:08;97501.66;;;7.30;100.00
83308;BME280;73223;48.584;13.460;2024-02-04T11:37:36;97503.31;;;7.35;100.00
83308;BME280;73223;48.584;13.460;2024-02-04T11:40:03;97505.75;;;7.54;100.00
83308;BME280;73223;48.584;13.460;2024-02-04T11:42:33;97510.13;;;7.43;100.00
83308;BME280;73223;48.584;13.460;2024-02-04T11:45:09;97509.28;;;7.43;100.00
83308;BME280;73223;48.584;13.460;2024-02-04T11:47:34;97511.75;;;7.55;100.00
83308;BME280;73223;48.584;13.460;2024-02-04T11:50:00;97522.72;;;7.80;100.00
83308;BME280;73223;48.584;13.460;2024-02-04T11:52:28;97509.09;;;7.67;100.00
83308;BME280;73223;48.584;13.460;2024-02-04T11:54:54;97510.84;;;7.60;100.00
83308;BME280;73223;48.584;13.460;2024-02-04T11:57:19;97496.97;;;7.74;100.00
83308;BME280;73223;48.584;13.460;2024-02-04T11:59:46;97500.59;;;7.53;100.00
83308;BME280;73223;48.584;13.460;2024-02-04T12:02:12;97499.69;;;7.60;100.00
83308;BME280;73223;48.584;13.460;2024-02-04T12:04:40;97497.97;;;7.59;100.00
83308;BME280;73223;48.584;13.460;2024-02-04T12:07:07;97498.91;;;7.52;100.00
83308;BME280;73223;48.584;13.460;2024-02-04T12:09:34;97489.63;;;7.28;100.00
83308;BME280;73223;48.584;13.460;2024-02-04T12:12:00;97471.31;;;7.60;100.00
83308;BME280;73223;48.584;13.460;2024-02-04T12:14:25;97482.66;;;7.39;100.00
83308;BME280;73223;48.584;13.460;2024-02-04T12:16:51;97463.59;;;7.54;100.00
83308;BME280;73223;48.584;13.460;2024-02-04T12:19:17;97474.94;;;7.35;100.00
83308;BME280;73223;48.584;13.460;2024-02-04T12:21:42;97476.56;;;7.51;100.00
83308;BME280;73223;48.584;13.460;2024-02-04T12:24:08;97472.38;;;7.35;100.00
83308;BME280;73223;48.584;13.460;2024-02-04T12:26:33;97474.69;;;7.68;100.00
83308;BME280;73223;48.584;13.460;2024-02-04T12:28:59;97464.97;;;7.91;100.00
83308;BME280;73223;48.584;13.460;2024-02-04T12:31:26;97466.09;;;7.64;100.00
83308;BME280;73223;48.584;13.460;2024-02-04T12:34:00;97469.47;;;7.71;100.00
83308;BME280;73223;48.584;13.460;2024-02-04T12:36:32;97459.91;;;7.84;100.00
83308;BME280;73223;48.584;13.460;2024-02-04T12:39:00;97466.16;;;7.60;100.00
83308;BME280;73223;48.584;13.460;2024-02-04T12:41:26;97455.81;;;7.60;100.00
83308;BME280;73223;48.584;13.460;2024-02-04T12:43:53;97460.00;;;7.72;100.00
83308;BME280;73223;48.584;13.460;2024-02-04T12:46:19;97458.41;;;7.58;100.00
83308;BME280;73223;48.584;13.460;2024-02-04T12:48:51;97442.03;;;7.65;100.00
83308;BME280;73223;48.584;13.460;2024-02-04T12:51:27;97441.13;;;7.68;100.00
83308;BME280;73223;48.584;13.460;2024-02-04T12:54:07;97429.84;;;7.78;100.00